Terminal Aerodrome Forecast
Issued by NWS Charleston, WV

Current Version | Previous Version | Text Only | Print | Product List | Glossary Off
Versions: 1 2 3 4 5 6 7 8 9 10 11 12 13 14 15 16 17 18 19 20 21 22 23 24 25 26 27 28 29

543
FTUS41 KRLX 221126
TAFEKN
TAF
KEKN 221126Z 2212/2312 15005KT 1SM BR OVC005
     FM221400 19008KT P6SM VCSH OVC015
     FM221800 22008KT 2SM SHRA OVC015
     FM222000 26006KT P6SM SHRA OVC015
     FM230600 17004KT 3SM -SHRA BKN007=

USA.gov is the U.S. government's official web portal to all federal, state and local government web resources and services.